createdAt,value
2023-05-09T00:02:01.430Z,65.16
2023-05-09T00:04:29.462Z,64.60
2023-05-09T00:06:56.077Z,65.60
2023-05-09T00:09:22.806Z,65.18
2023-05-09T00:11:52.550Z,66.58
2023-05-09T00:14:21.258Z,63.92
2023-05-09T00:16:49.527Z,66.55
2023-05-09T00:19:16.354Z,66.30
2023-05-09T00:21:44.431Z,63.71
2023-05-09T00:24:11.115Z,63.47
2023-05-09T00:26:37.690Z,65.70
2023-05-09T00:29:04.375Z,65.15
2023-05-09T00:31:34.205Z,63.81
2023-05-09T00:34:14.248Z,64.14
2023-05-09T00:36:49.653Z,64.70
2023-05-09T00:39:16.315Z,65.06
2023-05-09T00:41:42.939Z,65.29
2023-05-09T00:44:09.560Z,65.16
2023-05-09T00:46:36.322Z,64.59
2023-05-09T00:49:10.652Z,64.95
2023-05-09T00:51:41.477Z,64.52
2023-05-09T00:54:12.222Z,66.21
2023-05-09T00:56:39.474Z,64.84
2023-05-09T00:59:06.706Z,65.89
2023-05-09T01:01:33.388Z,64.53
2023-05-09T01:04:00.501Z,64.67
2023-05-09T01:06:59.858Z,64.65
2023-05-09T01:09:31.779Z,64.86
2023-05-09T01:12:16.185Z,64.77
2023-05-09T01:14:57.839Z,65.26
2023-05-09T01:17:36.149Z,65.09
2023-05-09T01:20:12.101Z,65.76
2023-05-09T01:22:44.330Z,67.24
2023-05-09T01:25:29.427Z,66.42
2023-05-09T01:28:10.867Z,66.50
2023-05-09T01:30:43.406Z,66.79
2023-05-09T01:33:12.317Z,66.88
2023-05-09T01:35:41.043Z,68.01
2023-05-09T01:38:10.637Z,67.50
2023-05-09T01:40:38.797Z,68.16
2023-05-09T01:43:10.775Z,68.82
2023-05-09T01:45:49.623Z,69.37
2023-05-09T01:48:19.882Z,69.71
2023-05-09T01:50:47.545Z,69.96
2023-05-09T01:53:14.678Z,71.01
2023-05-09T01:55:46.367Z,69.17
2023-05-09T01:58:16.854Z,69.31
2023-05-09T02:00:43.951Z,69.42
2023-05-09T02:03:11.275Z,69.23
2023-05-09T02:05:38.697Z,68.74
2023-05-09T02:08:05.636Z,68.61
2023-05-09T02:10:32.918Z,68.86
2023-05-09T02:12:59.645Z,68.87
2023-05-09T02:15:26.371Z,68.90
2023-05-09T02:17:59.898Z,68.83
2023-05-09T02:20:27.096Z,68.29
2023-05-09T02:22:53.817Z,67.65
2023-05-09T02:25:26.268Z,67.78
2023-05-09T02:27:53.650Z,67.91
2023-05-09T02:30:25.487Z,67.85
2023-05-09T02:32:57.008Z,67.96
2023-05-09T02:35:32.276Z,68.54
2023-05-09T02:37:59.344Z,68.21
2023-05-09T02:40:26.728Z,68.17
2023-05-09T02:42:53.435Z,67.90
2023-05-09T02:45:20.050Z,67.77
2023-05-09T02:47:51.169Z,68.08
2023-05-09T02:50:18.295Z,67.37
2023-05-09T02:52:45.300Z,67.34
2023-05-09T02:55:12.115Z,67.19
2023-05-09T02:57:38.799Z,67.01
2023-05-09T03:00:09.720Z,68.19
2023-05-09T03:02:36.768Z,67.08
2023-05-09T03:05:05.031Z,67.17
2023-05-09T03:07:31.628Z,67.31
2023-05-09T03:09:58.244Z,67.42
2023-05-09T03:12:24.804Z,67.39
2023-05-09T03:14:51.371Z,67.40
2023-05-09T03:17:21.564Z,67.15
2023-05-09T03:19:50.130Z,66.85
2023-05-09T03:22:16.726Z,67.40
2023-05-09T03:24:44.630Z,67.53
2023-05-09T03:27:11.577Z,67.67
2023-05-09T03:29:38.123Z,67.35
2023-05-09T03:32:05.083Z,67.17
2023-05-09T03:34:38.038Z,66.92
2023-05-09T03:37:07.862Z,66.62
2023-05-09T03:39:34.622Z,66.19
2023-05-09T03:42:01.722Z,66.97
2023-05-09T03:44:31.953Z,65.95
2023-05-09T03:47:13.102Z,67.69
2023-05-09T03:49:43.374Z,65.77
2023-05-09T03:52:11.605Z,65.81
2023-05-09T03:54:46.737Z,69.28
2023-05-09T03:57:19.048Z,65.87
2023-05-09T03:59:45.725Z,66.76
2023-05-09T04:02:24.009Z,66.37
2023-05-09T04:05:07.144Z,65.88
2023-05-09T04:07:38.385Z,66.08
2023-05-09T04:10:05.113Z,66.14
2023-05-09T04:12:40.312Z,66.13
2023-05-09T04:15:07.408Z,66.67
2023-05-09T04:17:34.043Z,66.56
2023-05-09T04:20:03.612Z,66.36
2023-05-09T04:22:32.546Z,66.83
2023-05-09T04:24:59.605Z,68.78
2023-05-09T04:27:28.320Z,66.32
2023-05-09T04:29:55.271Z,65.82
2023-05-09T04:32:30.342Z,66.80
2023-05-09T04:34:58.740Z,65.86
2023-05-09T04:37:26.271Z,65.40
2023-05-09T04:39:53.218Z,65.77
2023-05-09T04:42:19.752Z,65.85
2023-05-09T04:44:59.628Z,66.28
2023-05-09T04:47:26.374Z,66.53
2023-05-09T04:49:53.232Z,66.53
2023-05-09T04:52:20.034Z,66.42
2023-05-09T04:54:48.805Z,66.29
2023-05-09T04:57:18.295Z,66.69
2023-05-09T04:59:45.916Z,67.82
2023-05-09T05:02:13.327Z,67.15
2023-05-09T05:04:40.126Z,67.48
2023-05-09T05:07:09.074Z,67.75
2023-05-09T05:09:35.750Z,68.17
2023-05-09T05:12:04.152Z,68.18
2023-05-09T05:14:32.252Z,68.38
2023-05-09T05:17:03.607Z,68.56
2023-05-09T05:19:30.880Z,68.75
2023-05-09T05:21:58.348Z,68.29
2023-05-09T05:24:25.214Z,68.59
2023-05-09T05:26:51.795Z,69.10
2023-05-09T05:29:23.330Z,68.85
2023-05-09T05:31:50.242Z,69.54
2023-05-09T05:34:16.936Z,69.29
2023-05-09T05:36:43.586Z,68.30
2023-05-09T05:39:10.126Z,69.19
2023-05-09T05:41:36.724Z,69.43
2023-05-09T05:44:03.412Z,69.00
2023-05-09T05:46:35.692Z,68.73
2023-05-09T05:49:05.051Z,67.90
2023-05-09T05:51:32.464Z,68.79
2023-05-09T05:53:59.030Z,68.50
2023-05-09T05:56:26.215Z,68.99
2023-05-09T05:58:55.824Z,68.54
2023-05-09T06:01:22.471Z,68.48
2023-05-09T06:04:00.692Z,68.75
2023-05-09T06:06:33.618Z,68.23
2023-05-09T06:09:00.811Z,68.19
2023-05-09T06:11:35.716Z,68.00
2023-05-09T06:14:02.263Z,67.96
2023-05-09T06:16:28.902Z,68.70
2023-05-09T06:19:01.328Z,68.40
2023-05-09T06:21:27.927Z,68.02
2023-05-09T06:24:08.331Z,67.98
2023-05-09T06:26:40.971Z,68.13
2023-05-09T06:29:09.020Z,68.06
2023-05-09T06:31:38.798Z,68.85
2023-05-09T06:34:07.891Z,68.41
2023-05-09T06:36:40.258Z,68.44
2023-05-09T06:39:06.866Z,69.18
2023-05-09T06:41:33.458Z,68.56
2023-05-09T06:44:16.122Z,67.90
2023-05-09T06:46:42.720Z,67.77
2023-05-09T06:49:09.352Z,68.76
2023-05-09T06:51:35.983Z,67.65
2023-05-09T06:54:03.364Z,67.81
2023-05-09T06:56:31.781Z,67.75
2023-05-09T06:59:00.445Z,68.27
2023-05-09T07:01:27.953Z,66.34
2023-05-09T07:03:54.563Z,66.82
2023-05-09T07:06:21.466Z,66.37
2023-05-09T07:08:48.226Z,67.21
2023-05-09T07:11:17.066Z,66.28
2023-05-09T07:13:47.069Z,65.24
2023-05-09T07:16:14.182Z,66.68
2023-05-09T07:18:42.233Z,67.67
2023-05-09T07:21:09.636Z,68.50
2023-05-09T07:23:36.389Z,66.66
2023-05-09T07:26:10.308Z,66.65
2023-05-09T07:28:37.036Z,65.39
2023-05-09T07:31:07.426Z,65.08
2023-05-09T07:33:36.286Z,64.78
2023-05-09T07:36:03.841Z,66.66
2023-05-09T07:38:30.485Z,66.61
2023-05-09T07:41:05.735Z,64.28
2023-05-09T07:43:44.031Z,65.25
2023-05-09T07:46:10.834Z,64.94
2023-05-09T07:48:40.894Z,65.37
2023-05-09T07:51:11.235Z,65.66
2023-05-09T07:53:37.747Z,64.60
2023-05-09T07:56:07.780Z,64.09
2023-05-09T07:58:37.660Z,65.52
2023-05-09T08:01:08.321Z,64.43
2023-05-09T08:03:35.177Z,65.49
2023-05-09T08:06:09.002Z,63.32
2023-05-09T08:08:38.965Z,64.27
2023-05-09T08:11:05.747Z,64.11
2023-05-09T08:13:34.010Z,62.95
2023-05-09T08:16:01.346Z,63.32
2023-05-09T08:18:29.213Z,61.13
2023-05-09T08:20:55.858Z,62.81
2023-05-09T08:23:22.620Z,62.76
2023-05-09T08:25:52.542Z,63.03
2023-05-09T08:28:19.091Z,62.77
2023-05-09T08:30:45.637Z,63.14
2023-05-09T08:33:12.427Z,63.36
2023-05-09T08:35:39.000Z,62.13
2023-05-09T08:38:05.819Z,62.31
2023-05-09T08:40:35.816Z,62.89
2023-05-09T08:43:03.301Z,62.64
2023-05-09T08:45:32.912Z,62.82
2023-05-09T08:48:02.713Z,62.60
2023-05-09T08:50:29.584Z,62.17
2023-05-09T08:52:56.554Z,61.67
2023-05-09T08:55:27.516Z,62.73
2023-05-09T08:57:54.589Z,62.23
2023-05-09T09:00:21.384Z,62.47
2023-05-09T09:02:49.380Z,62.10
2023-05-09T09:05:39.534Z,61.77
2023-05-09T09:08:11.877Z,62.10
2023-05-09T09:10:42.497Z,61.88
2023-05-09T09:13:16.309Z,61.47
2023-05-09T09:15:47.165Z,61.26
2023-05-09T09:18:21.001Z,61.11
2023-05-09T09:20:58.090Z,61.90
2023-05-09T09:23:31.477Z,62.20
2023-05-09T09:26:00.028Z,61.18
2023-05-09T09:28:28.124Z,61.37
2023-05-09T09:30:55.504Z,61.50
2023-05-09T09:33:23.012Z,60.92
2023-05-09T09:35:51.336Z,61.06
2023-05-09T09:38:19.633Z,61.08
2023-05-09T09:40:49.986Z,60.84
2023-05-09T09:43:19.796Z,61.43
2023-05-09T09:45:50.726Z,60.90
2023-05-09T09:48:19.532Z,61.45
2023-05-09T09:50:51.662Z,61.56
2023-05-09T09:53:20.088Z,61.30
2023-05-09T09:55:55.409Z,61.04
2023-05-09T09:58:22.241Z,61.31
2023-05-09T10:01:04.011Z,61.87
2023-05-09T10:03:37.713Z,62.21
2023-05-09T10:06:04.494Z,62.50
2023-05-09T10:37:35.811Z,62.10
2023-05-09T10:40:04.213Z,62.31
2023-05-09T10:42:31.416Z,62.18
2023-05-09T10:45:02.039Z,62.17
2023-05-09T10:47:29.771Z,62.37
2023-05-09T10:49:57.989Z,62.16
2023-05-09T10:52:25.672Z,62.95
2023-05-09T10:55:04.468Z,62.51
2023-05-09T10:57:32.102Z,61.61
2023-05-09T11:00:01.834Z,61.43
2023-05-09T11:02:34.233Z,60.56
2023-05-09T11:05:14.294Z,61.33
2023-05-09T11:07:41.319Z,61.25
2023-05-09T11:10:22.152Z,61.07
2023-05-09T11:13:00.965Z,60.49
2023-05-09T11:15:30.272Z,60.36
2023-05-09T11:18:15.325Z,60.41
2023-05-09T11:20:51.615Z,59.53
2023-05-09T11:23:21.906Z,59.22
2023-05-09T11:25:49.806Z,59.13
2023-05-09T11:28:26.286Z,58.62
2023-05-09T11:30:54.783Z,59.05
2023-05-09T11:33:27.303Z,58.83
2023-05-09T11:36:14.020Z,59.34
2023-05-09T11:38:55.036Z,59.34
2023-05-09T11:41:38.367Z,59.45
2023-05-09T11:44:36.676Z,59.62
2023-05-09T11:47:11.243Z,59.50
2023-05-09T11:49:39.318Z,59.03
2023-05-09T11:52:13.045Z,58.91
2023-05-09T11:54:42.819Z,58.29
2023-05-09T11:59:43.707Z,57.37
2023-05-09T12:02:11.730Z,56.88
2023-05-09T12:04:39.537Z,56.99
2023-05-09T12:07:06.845Z,56.99
2023-05-09T12:09:34.553Z,56.02
2023-05-09T12:12:01.674Z,55.61
2023-05-09T12:14:28.858Z,55.66
2023-05-09T12:19:42.401Z,53.27
2023-05-09T12:22:10.140Z,54.60
2023-05-09T12:24:47.584Z,54.02
2023-05-09T12:27:23.927Z,54.24
2023-05-09T12:29:51.121Z,53.96
2023-05-09T12:32:18.953Z,54.93
2023-05-09T12:34:51.631Z,54.31
2023-05-09T12:37:21.479Z,53.62
2023-05-09T12:40:07.624Z,53.81
2023-05-09T12:42:38.082Z,53.33
2023-05-09T12:45:16.173Z,53.63
2023-05-09T12:47:43.163Z,53.17
2023-05-09T12:50:12.406Z,51.67
2023-05-09T12:52:50.679Z,51.76
2023-05-09T12:55:25.686Z,51.09
2023-05-09T12:58:07.301Z,50.75
2023-05-09T13:00:44.108Z,50.59
2023-05-09T13:03:39.410Z,50.51
2023-05-09T13:06:12.798Z,49.96
2023-05-09T13:08:40.519Z,50.60
2023-05-09T13:13:44.939Z,50.43
2023-05-09T13:16:14.104Z,50.10
2023-05-09T13:18:43.818Z,49.81
2023-05-09T13:21:10.448Z,48.96
2023-05-09T13:23:37.107Z,48.94
2023-05-09T13:26:03.675Z,48.26
2023-05-09T13:28:30.515Z,48.66
2023-05-09T13:31:05.693Z,48.04
2023-05-09T13:33:32.371Z,48.63
2023-05-09T13:35:59.069Z,49.32
2023-05-09T13:38:40.335Z,49.18
2023-05-09T13:41:07.469Z,49.91
2023-05-09T13:43:34.750Z,50.51
2023-05-09T13:46:09.704Z,50.52
2023-05-09T13:48:39.965Z,51.32
2023-05-09T13:51:14.656Z,51.48
2023-05-09T13:53:48.470Z,52.56
2023-05-09T13:56:21.134Z,52.98
2023-05-09T13:58:47.804Z,53.70
2023-05-09T14:01:24.303Z,54.68
2023-05-09T14:03:54.769Z,55.01
2023-05-09T14:06:31.775Z,55.25
2023-05-09T14:09:00.505Z,54.62
2023-05-09T14:11:27.997Z,55.68
2023-05-09T14:13:54.909Z,56.06
2023-05-09T14:16:22.187Z,55.12
2023-05-09T14:18:49.011Z,55.44
2023-05-09T14:21:16.140Z,55.65
2023-05-09T14:23:43.358Z,55.30
2023-05-09T14:26:10.192Z,55.26
2023-05-09T14:28:46.885Z,55.51
2023-05-09T14:31:13.758Z,55.53
2023-05-09T14:33:44.549Z,55.28
2023-05-09T14:36:11.918Z,56.34
2023-05-09T14:38:46.311Z,56.31
2023-05-09T14:41:16.627Z,57.14
2023-05-09T14:43:43.381Z,56.98
2023-05-09T14:46:12.652Z,56.67
2023-05-09T14:48:47.293Z,57.37
2023-05-09T14:51:15.648Z,57.34
2023-05-09T14:53:49.481Z,57.08
2023-05-09T14:56:17.972Z,57.21
2023-05-09T14:58:44.600Z,57.15
2023-05-09T15:01:11.289Z,56.45
2023-05-09T15:03:39.437Z,57.32
2023-05-09T15:06:06.143Z,56.86
2023-05-09T15:08:40.035Z,57.17
2023-05-09T15:11:13.340Z,57.03
2023-05-09T15:13:43.675Z,56.51
2023-05-09T15:16:10.482Z,55.77
2023-05-09T15:18:43.716Z,56.82
2023-05-09T15:21:14.641Z,56.46
2023-05-09T15:23:50.145Z,56.87
2023-05-09T15:26:23.233Z,56.08
2023-05-09T15:28:54.763Z,55.19
2023-05-09T15:31:27.498Z,55.42
2023-05-09T15:33:57.276Z,55.86
2023-05-09T15:36:23.921Z,55.92
2023-05-09T15:38:50.512Z,56.46
2023-05-09T15:41:17.469Z,56.46
2023-05-09T15:43:52.845Z,56.43
2023-05-09T15:46:22.814Z,56.63
2023-05-09T15:48:58.579Z,56.07
2023-05-09T15:51:34.273Z,56.47
2023-05-09T15:54:01.658Z,55.57
2023-05-09T15:56:34.872Z,56.39
2023-05-09T15:59:03.986Z,55.22
2023-05-09T16:01:35.172Z,54.95
2023-05-09T16:04:05.482Z,55.70
2023-05-09T16:06:40.397Z,55.46
2023-05-09T16:09:18.363Z,56.26
2023-05-09T16:11:46.949Z,56.59
2023-05-09T16:14:17.884Z,56.14
2023-05-09T16:16:44.716Z,56.26
2023-05-09T16:19:14.583Z,56.98
2023-05-09T16:21:41.908Z,55.32
2023-05-09T16:24:08.581Z,55.59
2023-05-09T16:26:44.732Z,53.71
2023-05-09T16:29:12.948Z,54.77
2023-05-09T16:31:39.661Z,55.66
2023-05-09T16:34:06.460Z,56.35
2023-05-09T16:36:34.010Z,57.35
2023-05-09T16:39:05.234Z,57.42
2023-05-09T16:41:35.257Z,56.09
2023-05-09T16:44:02.148Z,55.77
2023-05-09T16:46:34.829Z,56.95
2023-05-09T16:49:02.684Z,55.24
2023-05-09T16:51:31.647Z,56.33
2023-05-09T16:54:01.687Z,56.66
2023-05-09T16:56:28.231Z,55.84
2023-05-09T16:59:03.677Z,56.68
2023-05-09T17:01:31.936Z,55.44
2023-05-09T17:04:06.682Z,55.67
2023-05-09T17:06:37.072Z,55.59
2023-05-09T17:09:04.040Z,55.32
2023-05-09T17:11:37.750Z,55.22
2023-05-09T17:14:05.814Z,56.82
2023-05-09T17:16:32.666Z,57.46
2023-05-09T17:19:05.863Z,54.99
2023-05-09T17:21:32.982Z,56.68
2023-05-09T17:23:59.834Z,55.00
2023-05-09T17:26:26.901Z,56.27
2023-05-09T17:28:53.417Z,56.15
2023-05-09T17:31:22.874Z,57.40
2023-05-09T17:33:55.342Z,56.62
2023-05-09T17:36:32.320Z,55.98
2023-05-09T17:39:06.818Z,57.13
2023-05-09T17:41:39.985Z,56.53
2023-05-09T17:44:08.910Z,57.00
2023-05-09T17:46:47.046Z,56.36
2023-05-09T17:49:19.691Z,56.71
2023-05-09T17:51:59.358Z,56.83
2023-05-09T17:54:38.749Z,57.28
2023-05-09T17:57:09.725Z,56.64
2023-05-09T17:59:46.210Z,55.75
2023-05-09T18:02:14.718Z,57.52
2023-05-09T18:04:41.454Z,57.00
2023-05-09T18:07:16.704Z,57.85
2023-05-09T18:09:51.996Z,56.75
2023-05-09T18:12:31.114Z,57.70
2023-05-09T18:15:01.610Z,58.44
2023-05-09T18:17:41.296Z,56.85
2023-05-09T18:20:15.806Z,58.28
2023-05-09T18:22:51.623Z,58.87
2023-05-09T18:25:32.601Z,59.00
2023-05-09T18:28:14.433Z,56.39
2023-05-09T18:30:59.183Z,58.64
2023-05-09T18:33:29.164Z,56.85
2023-05-09T18:35:57.038Z,58.86
2023-05-09T18:38:34.915Z,57.44
2023-05-09T18:41:16.465Z,58.91
2023-05-09T18:43:47.637Z,58.97
2023-05-09T18:46:32.350Z,59.37
2023-05-09T18:49:03.677Z,59.34
2023-05-09T18:51:34.549Z,59.86
2023-05-09T18:54:02.811Z,59.19
2023-05-09T18:56:45.568Z,59.35
2023-05-09T18:59:22.069Z,57.19
2023-05-09T19:01:48.666Z,59.25
2023-05-09T19:04:17.423Z,59.65
2023-05-09T19:06:56.565Z,57.94
2023-05-09T19:09:24.099Z,59.60
2023-05-09T19:12:00.459Z,58.31
2023-05-09T19:14:44.830Z,56.46
2023-05-09T19:17:22.712Z,59.65
2023-05-09T19:20:00.935Z,59.82
2023-05-09T19:22:38.181Z,57.71
2023-05-09T19:25:14.575Z,59.94
2023-05-09T19:27:51.461Z,58.97
2023-05-09T19:30:29.257Z,59.68
2023-05-09T19:33:08.243Z,58.17
2023-05-09T19:35:42.628Z,59.54
2023-05-09T19:38:11.164Z,59.83
2023-05-09T19:40:39.287Z,59.29
2023-05-09T19:43:16.359Z,59.33
2023-05-09T19:45:49.108Z,59.72
2023-05-09T19:48:28.663Z,59.66
2023-05-09T19:51:00.161Z,60.04
2023-05-09T19:53:40.293Z,59.62
2023-05-09T19:56:08.737Z,59.60
2023-05-09T19:58:51.971Z,60.05
2023-05-09T20:01:22.087Z,58.75
2023-05-09T20:03:59.406Z,58.75
2023-05-09T20:06:27.658Z,59.87
2023-05-09T20:08:55.015Z,61.25
2023-05-09T20:11:23.856Z,60.65
2023-05-09T20:13:50.968Z,59.48
2023-05-09T20:16:21.683Z,61.12
2023-05-09T20:18:52.736Z,60.49
2023-05-09T20:21:19.907Z,60.46
2023-05-09T20:23:51.123Z,57.96
2023-05-09T20:26:20.154Z,60.25
2023-05-09T20:28:46.863Z,58.93
2023-05-09T20:31:17.867Z,59.78
2023-05-09T20:33:44.758Z,58.34
2023-05-09T20:36:13.285Z,60.56
2023-05-09T20:38:39.752Z,60.21
2023-05-09T20:41:07.360Z,61.51
2023-05-09T20:43:41.763Z,59.24
2023-05-09T20:46:10.413Z,61.09
2023-05-09T20:48:41.256Z,60.09
2023-05-09T20:51:12.019Z,60.89
2023-05-09T20:53:38.663Z,60.24
2023-05-09T20:56:11.469Z,61.02
2023-05-09T20:58:43.308Z,61.62
2023-05-09T21:01:14.043Z,61.10
2023-05-09T21:03:40.935Z,60.92
2023-05-09T21:06:08.530Z,61.45
2023-05-09T21:08:37.151Z,60.33
2023-05-09T21:11:10.296Z,60.17
2023-05-09T21:13:37.312Z,61.32
2023-05-09T21:16:09.436Z,62.13
2023-05-09T21:18:36.550Z,60.22
2023-05-09T21:21:14.620Z,62.05
2023-05-09T21:23:41.464Z,62.54
2023-05-09T21:26:09.508Z,62.32
2023-05-09T21:28:38.054Z,62.20
2023-05-09T21:31:09.735Z,60.77
2023-05-09T21:33:43.341Z,62.56
2023-05-09T21:36:21.918Z,62.79
2023-05-09T21:38:53.385Z,59.87
2023-05-09T21:41:23.696Z,61.17
2023-05-09T21:43:58.956Z,62.78
2023-05-09T21:46:27.951Z,63.13
2023-05-09T21:49:02.791Z,62.98
2023-05-09T21:51:34.162Z,62.58
2023-05-09T21:54:01.841Z,64.30
2023-05-09T21:56:31.341Z,64.61
2023-05-09T21:59:12.435Z,64.50
2023-05-09T22:01:49.103Z,65.08
2023-05-09T22:04:24.247Z,64.22
2023-05-09T22:07:06.937Z,64.39
2023-05-09T22:09:35.412Z,63.51
2023-05-09T22:12:03.612Z,62.88
2023-05-09T22:14:39.483Z,63.60
2023-05-09T22:17:21.499Z,63.39
2023-05-09T22:19:51.793Z,64.23
2023-05-09T22:22:19.342Z,65.00
2023-05-09T22:24:46.379Z,65.42
2023-05-09T22:27:19.671Z,65.74
2023-05-09T22:29:46.596Z,65.90
2023-05-09T22:32:16.636Z,64.56
2023-05-09T22:34:52.962Z,66.06
2023-05-09T22:37:26.003Z,66.30
2023-05-09T22:39:52.986Z,67.06
2023-05-09T22:42:23.721Z,66.71
2023-05-09T22:44:59.196Z,66.10
2023-05-09T22:47:31.328Z,65.70
2023-05-09T22:50:01.635Z,65.27
2023-05-09T22:52:28.943Z,66.22
2023-05-09T22:55:06.910Z,66.80
2023-05-09T22:57:40.182Z,66.74
2023-05-09T23:00:13.817Z,67.60
2023-05-09T23:02:43.590Z,68.37
2023-05-09T23:05:13.324Z,67.99
2023-05-09T23:07:47.001Z,66.98
2023-05-09T23:10:20.168Z,66.68
2023-05-09T23:12:47.515Z,66.75
2023-05-09T23:15:14.246Z,66.32
2023-05-09T23:17:41.633Z,66.58
2023-05-09T23:20:11.969Z,65.84
2023-05-09T23:22:45.992Z,65.05
2023-05-09T23:25:19.488Z,65.37
2023-05-09T23:27:53.747Z,65.45
2023-05-09T23:30:20.496Z,65.61
2023-05-09T23:32:47.220Z,65.45
2023-05-09T23:35:13.925Z,64.97
2023-05-09T23:37:48.111Z,64.81
2023-05-09T23:40:19.454Z,64.86
2023-05-09T23:42:51.528Z,65.22
2023-05-09T23:45:19.525Z,64.83
2023-05-09T23:47:53.574Z,65.05
2023-05-09T23:50:20.300Z,64.55
2023-05-09T23:52:55.750Z,64.95
2023-05-09T23:55:22.824Z,65.72
2023-05-09T23:57:49.472Z,65.83
